Time;durP1;ratioP1;P1;durP2;ratioP2;P2;SDS_P1;SDS_P2;PMS_P1;PMS_P2;Temp;Humidity;BMP_temperature;BMP_pressure;BME280_temperature;BME280_humidity;BME280_pressure;Samples;Min_cycle;Max_cycle;Signal;HPM_P1;HPM_P2
2022/01/03 00:01:11;;;;;;;1.10;0.88;;;20.60;51.30;;;;;;6199312;28;20053;-72
2022/01/03 00:04:14;;;;;;;0.70;0.70;;;20.60;51.40;;;;;;6221046;28;20358;-72
2022/01/03 00:07:15;;;;;;;1.20;0.88;;;20.60;51.30;;;;;;6203964;28;20022;-72
2022/01/03 00:10:18;;;;;;;1.13;0.82;;;20.50;51.20;;;;;;6197229;28;20370;-72
2022/01/03 00:13:20;;;;;;;1.08;0.70;;;20.60;51.30;;;;;;6218545;28;20018;-73
2022/01/03 00:16:23;;;;;;;1.55;0.82;;;20.60;51.40;;;;;;6215954;28;20096;-72
2022/01/03 00:19:23;;;;;;;1.55;0.95;;;20.60;51.40;;;;;;6220398;28;20026;-73
2022/01/03 00:22:24;;;;;;;1.45;0.80;;;20.50;51.30;;;;;;6220504;28;20460;-72
2022/01/03 00:25:26;;;;;;;1.92;1.00;;;20.60;51.40;;;;;;6220222;28;20080;-73
2022/01/03 00:28:40;;;;;;;0.98;0.75;;;20.60;51.40;;;;;;6216911;28;20025;-73
2022/01/03 00:31:41;;;;;;;1.15;0.80;;;20.60;51.30;;;;;;6207372;28;20381;-72
2022/01/03 00:34:42;;;;;;;1.08;0.80;;;20.50;51.20;;;;;;6195863;28;20062;-73
2022/01/03 00:37:45;;;;;;;1.30;0.77;;;20.60;51.30;;;;;;6219921;28;20402;-72
2022/01/03 00:40:46;;;;;;;1.17;0.90;;;20.60;51.30;;;;;;6219850;28;20304;-72
2022/01/03 00:43:48;;;;;;;0.88;0.75;;;20.60;51.40;;;;;;6220311;28;20072;-73
2022/01/03 00:46:49;;;;;;;1.00;0.77;;;20.60;51.40;;;;;;6217906;28;20033;-72
2022/01/03 00:49:50;;;;;;;0.93;0.80;;;20.60;51.40;;;;;;6220436;28;20231;-72
2022/01/03 00:52:52;;;;;;;0.88;0.70;;;20.50;51.30;;;;;;6216486;28;20412;-73
2022/01/03 00:56:12;;;;;;;0.93;0.82;;;20.50;51.20;;;;;;6219713;28;20052;-72
2022/01/03 00:59:23;;;;;;;0.93;0.80;;;20.50;51.20;;;;;;6219861;28;20497;-72
2022/01/03 01:02:27;;;;;;;0.88;0.75;;;20.60;51.40;;;;;;6218957;28;20069;-74
2022/01/03 01:05:28;;;;;;;1.50;1.00;;;20.60;51.30;;;;;;6217309;28;20022;-73
2022/01/03 01:08:32;;;;;;;1.50;1.00;;;20.50;51.20;;;;;;6195442;28;20362;-73
2022/01/03 01:11:34;;;;;;;1.40;0.93;;;20.60;51.70;;;;;;6202271;28;20550;-73
2022/01/03 01:14:34;;;;;;;1.10;0.80;;;20.60;51.40;;;;;;6219345;28;20026;-72
2022/01/03 01:17:36;;;;;;;1.23;0.95;;;20.60;51.40;;;;;;6218915;28;20116;-73
2022/01/03 01:20:39;;;;;;;1.60;0.93;;;20.50;51.30;;;;;;6206876;28;20065;-72
2022/01/03 01:23:41;;;;;;;0.95;0.80;;;20.60;51.40;;;;;;6218366;28;20064;-72
2022/01/03 01:30:03;;;;;;;1.20;0.93;;;20.50;51.30;;;;;;6212185;28;20508;-72
2022/01/03 01:33:13;;;;;;;1.52;0.90;;;20.50;51.30;;;;;;6193154;28;20034;-72
2022/01/03 01:36:14;;;;;;;1.85;1.00;;;20.50;51.30;;;;;;6201006;28;20026;-73
2022/01/03 01:39:17;;;;;;;0.95;0.82;;;20.50;51.20;;;;;;6194997;28;20489;-73
2022/01/03 01:42:19;;;;;;;1.50;0.93;;;20.50;51.30;;;;;;6209676;28;20026;-73
2022/01/03 01:45:23;;;;;;;1.00;0.80;;;20.50;51.30;;;;;;6224381;28;20076;-72
2022/01/03 01:48:26;;;;;;;0.90;0.83;;;20.50;51.30;;;;;;6224717;28;20032;-72
2022/01/03 01:51:26;;;;;;;1.65;1.02;;;20.50;51.30;;;;;;6223927;28;20026;-72
2022/01/03 01:54:33;;;;;;;1.25;0.82;;;20.50;51.30;;;;;;6211505;28;20037;-72
2022/01/03 01:57:47;;;;;;;1.45;0.90;;;20.50;51.30;;;;;;6222896;28;20062;-72
2022/01/03 02:00:52;;;;;;;1.40;1.00;;;20.50;51.30;;;;;;6227062;28;20030;-73
2022/01/03 02:04:01;;;;;;;0.65;0.45;;;20.50;51.20;;;;;;6226275;28;20296;-73
2022/01/03 02:07:39;;;;;;;0.95;0.85;;;20.50;51.30;;;;;;6211858;28;20041;-72
2022/01/03 02:10:44;;;;;;;1.30;0.80;;;20.50;51.30;;;;;;6202319;28;20450;-72
2022/01/03 02:13:45;;;;;;;0.97;0.77;;;20.50;51.20;;;;;;6225193;28;20044;-72
2022/01/03 02:16:46;;;;;;;1.10;0.90;;;20.50;51.20;;;;;;6226813;28;20117;-73
2022/01/03 02:20:10;;;;;;;0.93;0.70;;;20.50;51.30;;;;;;6226843;28;20034;-72
2022/01/03 02:23:11;;;;;;;1.33;0.80;;;20.50;51.30;;;;;;6226723;28;20160;-72
2022/01/03 02:26:12;;;;;;;1.00;0.82;;;20.50;51.20;;;;;;6223287;28;20034;-73
2022/01/03 02:29:12;;;;;;;1.20;0.82;;;20.50;51.30;;;;;;6226473;28;20036;-73
2022/01/03 02:32:13;;;;;;;1.23;0.80;;;20.50;51.30;;;;;;6209726;28;20101;-72
2022/01/03 02:35:14;;;;;;;0.90;0.65;;;20.50;51.30;;;;;;6206549;28;20033;-72
2022/01/03 02:38:15;;;;;;;0.88;0.70;;;20.50;51.30;;;;;;6217479;28;20026;-73
2022/01/03 02:41:15;;;;;;;1.17;0.70;;;20.50;51.30;;;;;;6226498;28;20484;-72
2022/01/03 02:44:19;;;;;;;1.00;0.80;;;20.50;51.30;;;;;;6226517;28;20091;-73
2022/01/03 02:47:22;;;;;;;1.10;0.80;;;20.50;51.30;;;;;;6224819;28;20104;-72
2022/01/03 02:50:25;;;;;;;1.50;0.90;;;20.50;51.30;;;;;;6226359;28;20030;-72
2022/01/03 02:53:26;;;;;;;1.00;0.90;;;20.50;51.30;;;;;;6226728;28;20041;-73
2022/01/03 02:56:34;;;;;;;1.55;1.00;;;20.50;51.30;;;;;;6223446;28;20034;-73
2022/01/03 02:59:34;;;;;;;1.50;1.00;;;20.50;51.30;;;;;;6222605;28;20065;-73
2022/01/03 03:02:35;;;;;;;0.93;0.82;;;20.50;51.30;;;;;;6222117;28;20054;-72
2022/01/03 03:05:36;;;;;;;1.38;0.90;;;20.50;51.30;;;;;;6218860;28;20449;-73
2022/01/03 03:08:36;;;;;;;1.55;1.00;;;20.50;51.30;;;;;;6197982;28;20089;-72
2022/01/03 03:11:38;;;;;;;1.45;0.82;;;20.50;51.30;;;;;;6206037;28;20424;-72
2022/01/03 03:14:39;;;;;;;1.40;0.93;;;20.50;51.30;;;;;;6216036;28;20025;-72
2022/01/03 03:17:41;;;;;;;1.35;0.98;;;20.50;51.30;;;;;;6222007;28;20092;-73
2022/01/03 03:20:43;;;;;;;1.38;0.90;;;20.50;51.30;;;;;;6211817;28;20023;-73
2022/01/03 03:23:44;;;;;;;1.25;0.90;;;20.50;51.30;;;;;;6195315;28;20096;-73
2022/01/03 03:26:44;;;;;;;1.02;0.88;;;20.50;51.30;;;;;;6204220;28;20350;-72
2022/01/03 03:29:48;;;;;;;0.98;0.77;;;20.50;51.30;;;;;;6221585;28;20101;-72
2022/01/03 03:32:52;;;;;;;1.35;0.85;;;20.50;51.30;;;;;;6203364;28;20045;-72
2022/01/03 03:35:52;;;;;;;1.10;0.75;;;20.50;51.30;;;;;;6204033;28;20389;-72
2022/01/03 03:38:53;;;;;;;0.98;0.70;;;20.50;51.30;;;;;;6221710;28;20389;-72
2022/01/03 03:41:53;;;;;;;1.35;0.85;;;20.50;51.30;;;;;;6217992;28;20440;-73
2022/01/03 03:44:54;;;;;;;0.85;0.70;;;20.50;51.30;;;;;;6221274;28;20044;-72
2022/01/03 03:47:57;;;;;;;1.30;0.82;;;20.50;51.30;;;;;;6221216;28;20026;-72
2022/01/03 03:50:57;;;;;;;1.17;0.80;;;20.50;51.20;;;;;;6221454;28;20070;-72
2022/01/03 03:53:58;;;;;;;0.73;0.63;;;20.50;51.30;;;;;;6212788;28;20033;-72
2022/01/03 03:56:59;;;;;;;0.70;0.70;;;20.50;51.30;;;;;;6212821;28;20472;-72
2022/01/03 04:00:40;;;;;;;1.00;0.80;;;20.50;51.30;;;;;;6221664;28;20061;-72
2022/01/03 04:03:40;;;;;;;1.33;0.90;;;20.50;51.30;;;;;;6217651;28;20096;-72
2022/01/03 04:06:41;;;;;;;1.13;0.80;;;20.50;51.30;;;;;;6208462;28;20022;-72
2022/01/03 04:09:41;;;;;;;1.40;0.80;;;20.40;51.20;;;;;;6196997;28;20026;-72
2022/01/03 04:12:46;;;;;;;1.30;0.90;;;20.50;51.20;;;;;;6211273;28;20029;-72
2022/01/03 04:15:46;;;;;;;1.13;0.83;;;20.50;51.30;;;;;;6217451;28;20353;-72
2022/01/03 04:18:47;;;;;;;0.85;0.75;;;20.50;51.30;;;;;;6214385;28;20038;-72
2022/01/03 04:21:47;;;;;;;0.82;0.63;;;20.40;51.20;;;;;;6220379;28;20105;-73
2022/01/03 04:24:48;;;;;;;0.77;0.70;;;20.50;51.20;;;;;;6220620;28;20034;-72
2022/01/03 04:27:48;;;;;;;2.35;0.80;;;20.50;51.20;;;;;;6215400;28;20029;-72
2022/01/03 04:30:51;;;;;;;1.00;0.82;;;20.50;51.20;;;;;;6214884;28;20022;-72
2022/01/03 04:33:51;;;;;;;0.70;0.60;;;20.50;51.20;;;;;;6195721;28;20037;-72
2022/01/03 04:36:52;;;;;;;0.90;0.80;;;20.50;51.20;;;;;;6210670;28;20065;-72
2022/01/03 04:39:52;;;;;;;0.75;0.70;;;20.50;51.20;;;;;;6219899;28;20437;-72
2022/01/03 04:42:53;;;;;;;1.15;1.00;;;20.50;51.20;;;;;;6220456;28;20538;-73
2022/01/03 04:45:56;;;;;;;1.10;0.73;;;20.40;51.10;;;;;;6218299;28;20025;-72
2022/01/03 04:48:56;;;;;;;2.17;0.80;;;20.50;51.20;;;;;;6220158;28;20037;-72
2022/01/03 04:51:57;;;;;;;1.17;0.80;;;20.50;51.20;;;;;;6219543;28;20067;-72
2022/01/03 04:54:58;;;;;;;0.75;0.63;;;20.50;51.30;;;;;;6219993;28;20030;-72
2022/01/03 04:57:58;;;;;;;1.42;0.80;;;20.50;51.20;;;;;;6219805;28;20041;-72
2022/01/03 05:00:59;;;;;;;0.90;0.77;;;20.50;51.20;;;;;;6219414;28;20037;-72
2022/01/03 05:03:59;;;;;;;0.90;0.80;;;20.50;51.20;;;;;;6219416;28;20042;-72
2022/01/03 05:07:00;;;;;;;2.20;1.10;;;20.50;51.20;;;;;;6219626;28;20505;-73
2022/01/03 05:10:01;;;;;;;1.30;1.02;;;20.50;51.20;;;;;;6219520;28;20026;-72
2022/01/03 05:13:01;;;;;;;1.35;0.80;;;20.50;51.20;;;;;;6216633;28;20030;-72
2022/01/03 05:16:02;;;;;;;1.60;0.90;;;20.40;51.20;;;;;;6200556;28;20033;-72
2022/01/03 05:19:03;;;;;;;0.90;0.80;;;20.50;51.20;;;;;;6218900;28;20109;-73
2022/01/03 05:22:04;;;;;;;1.48;0.90;;;20.50;51.10;;;;;;6211293;28;20049;-72
2022/01/03 05:25:05;;;;;;;1.83;1.05;;;20.50;51.20;;;;;;6219605;28;20029;-72
2022/01/03 05:28:06;;;;;;;1.00;0.90;;;20.50;51.10;;;;;;6219178;28;20026;-72
2022/01/03 05:31:08;;;;;;;1.00;0.90;;;20.50;51.10;;;;;;6211679;28;20104;-73
2022/01/03 05:34:09;;;;;;;1.27;1.00;;;20.50;51.10;;;;;;6195157;28;20170;-72
2022/01/03 05:37:09;;;;;;;0.82;0.75;;;20.50;51.10;;;;;;6214427;28;20026;-73
2022/01/03 05:40:10;;;;;;;0.77;0.77;;;20.50;51.10;;;;;;6218509;28;20022;-72
2022/01/03 05:43:10;;;;;;;0.80;0.80;;;20.50;51.10;;;;;;6219193;28;20053;-73
2022/01/03 05:46:12;;;;;;;2.25;1.10;;;20.50;51.10;;;;;;6219105;28;20029;-72
2022/01/03 05:49:13;;;;;;;0.88;0.80;;;20.50;51.10;;;;;;6219061;28;20030;-73
2022/01/03 05:52:14;;;;;;;1.10;0.90;;;20.50;51.10;;;;;;6219487;28;20026;-73
2022/01/03 05:55:14;;;;;;;1.67;0.90;;;20.50;51.00;;;;;;6202146;28;20034;-72
2022/01/03 05:58:15;;;;;;;1.08;0.90;;;20.50;51.10;;;;;;6218883;28;20436;-73
2022/01/03 06:01:16;;;;;;;1.30;0.90;;;20.50;51.10;;;;;;6208708;28;20127;-72
2022/01/03 06:04:34;;;;;;;1.30;1.02;;;20.50;51.10;;;;;;6170182;28;20037;-73
2022/01/03 06:07:34;;;;;;;1.05;0.90;;;20.50;51.10;;;;;;6189568;28;20034;-73
2022/01/03 06:10:39;;;;;;;1.20;0.90;;;20.50;51.00;;;;;;6193792;28;20079;-72
2022/01/03 06:13:39;;;;;;;2.20;0.98;;;20.50;51.00;;;;;;6218987;28;20109;-72
2022/01/03 06:16:40;;;;;;;1.08;0.90;;;20.50;51.00;;;;;;6218376;28;20034;-72
2022/01/03 06:19:41;;;;;;;0.85;0.70;;;20.50;51.00;;;;;;6218913;28;20030;-72
2022/01/03 06:22:42;;;;;;;0.63;0.63;;;20.50;51.00;;;;;;6218596;28;20359;-72
2022/01/03 06:25:43;;;;;;;0.90;0.82;;;20.50;50.90;;;;;;6218541;28;20120;-72
2022/01/03 06:28:43;;;;;;;1.48;0.85;;;20.50;50.90;;;;;;6218301;28;20037;-72
2022/01/03 06:31:44;;;;;;;1.15;0.80;;;20.50;50.90;;;;;;6208749;28;20042;-72
2022/01/03 06:34:44;;;;;;;1.00;0.73;;;20.50;50.90;;;;;;6199267;28;20069;-73
2022/01/03 06:37:45;;;;;;;1.85;1.35;;;20.50;50.90;;;;;;6220276;28;20042;-73
2022/01/03 06:40:45;;;;;;;1.25;0.98;;;20.50;50.80;;;;;;6222842;28;20029;-73
2022/01/03 06:43:46;;;;;;;1.02;0.82;;;20.50;50.80;;;;;;6223089;28;20030;-72
2022/01/03 06:46:48;;;;;;;1.00;0.90;;;20.60;50.90;;;;;;6220697;28;20388;-72
2022/01/03 06:49:48;;;;;;;1.50;1.05;;;20.60;50.90;;;;;;6223153;28;20113;-72
2022/01/03 06:52:49;;;;;;;1.67;1.02;;;20.60;50.80;;;;;;6222798;28;20159;-72
2022/01/03 06:55:50;;;;;;;1.30;1.00;;;20.60;50.80;;;;;;6222831;28;20032;-73
2022/01/03 06:58:50;;;;;;;1.13;0.80;;;20.60;50.80;;;;;;6222196;28;20719;-72
2022/01/03 07:01:50;;;;;;;1.67;0.80;;;20.60;50.80;;;;;;6201369;28;20054;-72
2022/01/03 07:04:51;;;;;;;1.30;1.10;;;20.60;50.80;;;;;;6197208;28;20105;-73
2022/01/03 07:07:52;;;;;;;1.30;0.90;;;20.60;50.80;;;;;;6200245;28;20359;-72
2022/01/03 07:10:52;;;;;;;2.22;1.30;;;20.60;50.90;;;;;;6184301;28;20053;-72
2022/01/03 07:14:04;;;;;;;1.38;1.10;;;20.60;50.80;;;;;;6224871;28;20547;-73
2022/01/03 07:20:25;;;;;;;1.33;0.93;;;20.60;50.90;;;;;;6216373;28;20030;-72
2022/01/03 07:23:25;;;;;;;1.30;1.10;;;20.60;50.90;;;;;;6220947;28;20048;-73
2022/01/03 07:26:27;;;;;;;1.52;1.30;;;20.60;50.90;;;;;;6223711;28;20026;-72
2022/01/03 07:29:28;;;;;;;1.95;1.17;;;20.60;50.90;;;;;;6224006;28;20049;-73
2022/01/03 07:32:28;;;;;;;1.27;1.00;;;20.60;50.90;;;;;;6201724;28;20405;-72
2022/01/03 07:35:29;;;;;;;1.90;1.30;;;20.60;50.90;;;;;;6206332;28;20089;-72
2022/01/03 07:38:29;;;;;;;1.95;1.40;;;20.60;50.90;;;;;;6223780;28;20038;-72
2022/01/03 07:41:31;;;;;;;1.75;1.15;;;20.60;50.90;;;;;;6222912;28;20392;-73
2022/01/03 07:44:31;;;;;;;1.35;1.00;;;20.50;50.90;;;;;;6223588;28;20117;-72
2022/01/03 07:47:32;;;;;;;1.33;1.05;;;20.60;50.90;;;;;;6223390;28;20026;-72
2022/01/03 07:50:33;;;;;;;1.40;1.10;;;20.50;50.90;;;;;;6223476;28;20036;-72
2022/01/03 07:53:33;;;;;;;1.55;1.17;;;20.60;50.90;;;;;;6218518;28;20037;-72
2022/01/03 07:56:34;;;;;;;1.17;1.00;;;20.60;51.00;;;;;;6208092;28;20088;-72
2022/01/03 07:59:34;;;;;;;1.20;0.88;;;20.60;50.90;;;;;;6223952;28;20038;-73
2022/01/03 08:02:37;;;;;;;1.02;0.82;;;20.60;50.90;;;;;;6222684;28;20049;-72
2022/01/03 08:05:38;;;;;;;2.03;1.10;;;20.60;50.90;;;;;;6219998;28;20054;-73
2022/01/03 08:08:39;;;;;;;2.15;1.23;;;20.60;50.90;;;;;;6198788;28;20026;-73
2022/01/03 08:11:40;;;;;;;1.52;0.95;;;20.60;50.90;;;;;;6185706;28;20050;-73
2022/01/03 08:14:40;;;;;;;1.65;1.10;;;20.50;50.90;;;;;;6198577;28;20023;-72
2022/01/03 08:17:44;;;;;;;3.17;1.30;;;20.50;50.90;;;;;;6217210;28;20046;-72
2022/01/03 08:20:44;;;;;;;1.52;0.90;;;20.60;50.70;;;;;;6199078;28;20485;-73
2022/01/03 08:23:45;;;;;;;2.13;1.33;;;20.60;50.80;;;;;;6201662;28;20037;-73
2022/01/03 08:26:45;;;;;;;4.57;1.10;;;20.60;50.80;;;;;;6213539;28;20053;-73
2022/01/03 08:29:46;;;;;;;2.60;1.40;;;20.60;50.80;;;;;;6208190;28;20096;-73
2022/01/03 08:32:47;;;;;;;4.40;1.30;;;20.50;50.70;;;;;;6180235;28;20401;-73
2022/01/03 08:35:47;;;;;;;1.75;1.13;;;20.50;50.70;;;;;;6206455;28;20041;-73
2022/01/03 08:38:48;;;;;;;1.65;1.20;;;20.50;50.80;;;;;;6219173;28;20120;-73
2022/01/03 08:41:49;;;;;;;1.98;1.13;;;20.60;50.90;;;;;;6203610;28;20705;-73
2022/01/03 08:44:50;;;;;;;2.47;1.17;;;20.60;50.90;;;;;;6201493;28;20417;-73
2022/01/03 08:47:50;;;;;;;2.03;1.10;;;20.50;50.90;;;;;;6214535;28;20033;-73
2022/01/03 08:50:51;;;;;;;1.67;1.30;;;20.60;51.00;;;;;;6212624;28;20489;-73
2022/01/03 08:53:52;;;;;;;2.67;1.20;;;20.60;51.00;;;;;;6193097;28;20031;-73
2022/01/03 08:56:53;;;;;;;1.75;1.00;;;20.60;51.00;;;;;;6211816;28;20080;-73
2022/01/03 08:59:53;;;;;;;3.03;1.40;;;20.60;51.00;;;;;;6217462;28;20025;-73
2022/01/03 09:02:54;;;;;;;2.45;1.15;;;20.60;51.10;;;;;;6220077;28;20147;-73
2022/01/03 09:05:54;;;;;;;2.95;1.20;;;20.60;51.00;;;;;;6205757;28;20399;-73
2022/01/03 09:08:55;;;;;;;3.08;1.48;;;20.60;51.10;;;;;;6218341;28;20112;-73
2022/01/03 09:11:56;;;;;;;2.22;1.42;;;20.60;51.10;;;;;;6220917;28;20447;-73
2022/01/03 09:14:58;;;;;;;2.22;1.30;;;20.60;51.10;;;;;;6214375;28;20034;-74
2022/01/03 09:17:59;;;;;;;62.58;2.28;;;20.60;51.30;;;;;;6201204;28;20034;-74
2022/01/03 09:20:59;;;;;;;19.40;1.60;;;20.70;51.80;;;;;;6198645;28;20065;-73
2022/01/03 09:24:21;;;;;;;17.85;1.50;;;20.70;51.50;;;;;;6209489;28;20026;-74
2022/01/03 09:30:41;;;;;;;10.02;2.13;;;20.70;51.50;;;;;;6203516;28;20440;-74
2022/01/03 09:33:42;;;;;;;17.67;1.65;;;20.70;51.50;;;;;;6196079;28;20033;-73
2022/01/03 09:36:42;;;;;;;11.80;1.73;;;20.70;51.40;;;;;;6198733;28;20037;-73
2022/01/03 09:39:43;;;;;;;6.13;1.35;;;20.60;51.40;;;;;;6188905;28;20778;-75
2022/01/03 09:42:49;;;;;;;9.10;1.40;;;20.70;51.40;;;;;;6220058;28;20025;-74
2022/01/03 09:45:49;;;;;;;6.28;1.50;;;20.70;51.40;;;;;;6189565;28;20448;-74
2022/01/03 09:48:52;;;;;;;9.60;1.77;;;20.70;51.30;;;;;;6212819;28;20022;-74
2022/01/03 09:51:53;;;;;;;3.63;1.55;;;20.70;51.40;;;;;;6208183;28;20030;-73
2022/01/03 09:54:55;;;;;;;7.90;1.27;;;20.70;51.40;;;;;;6217714;28;20108;-73
2022/01/03 09:57:56;;;;;;;18.55;2.22;;;20.70;51.70;;;;;;6220237;28;20041;-74
2022/01/03 10:00:57;;;;;;;28.52;2.60;;;20.80;51.90;;;;;;6217586;28;20365;-73
2022/01/03 10:03:58;;;;;;;28.45;3.42;;;20.80;52.60;;;;;;6218563;28;20393;-73
2022/01/03 10:06:59;;;;;;;14.05;2.00;;;20.80;52.50;;;;;;6213796;28;20073;-74
2022/01/03 10:10:01;;;;;;;20.17;2.15;;;20.80;52.00;;;;;;6225793;28;20511;-73
2022/01/03 10:13:02;;;;;;;18.33;1.60;;;20.80;51.80;;;;;;6220673;28;20028;-74
2022/01/03 10:16:03;;;;;;;11.07;2.03;;;20.70;51.70;;;;;;6224752;28;20117;-74
2022/01/03 10:19:04;;;;;;;12.68;2.30;;;20.70;51.80;;;;;;6225251;28;20062;-74
2022/01/03 10:22:07;;;;;;;12.55;2.38;;;20.70;51.80;;;;;;6219456;28;20052;-73
2022/01/03 10:25:15;;;;;;;9.32;1.70;;;20.70;51.80;;;;;;6224921;28;20030;-73
2022/01/03 10:28:27;;;;;;;16.80;2.45;;;20.70;51.80;;;;;;6225297;28;20109;-74
2022/01/03 10:31:27;;;;;;;8.40;2.03;;;20.70;51.40;;;;;;6223986;28;20045;-74
2022/01/03 10:34:31;;;;;;;11.75;2.15;;;20.70;51.30;;;;;;6179493;28;20061;-74
2022/01/03 10:37:36;;;;;;;10.68;2.00;;;20.70;51.30;;;;;;6221549;28;20040;-74
2022/01/03 10:40:38;;;;;;;15.23;2.17;;;20.70;51.40;;;;;;6221321;28;20022;-74
2022/01/03 10:43:38;;;;;;;5.85;1.83;;;20.60;51.40;;;;;;6222619;28;20030;-73
2022/01/03 10:46:50;;;;;;;11.98;2.97;;;20.70;51.40;;;;;;6214411;28;20014;-74
2022/01/03 10:49:50;;;;;;;12.13;2.58;;;20.60;51.40;;;;;;6211808;28;20089;-73
2022/01/03 10:52:51;;;;;;;16.08;2.80;;;20.60;50.90;;;;;;6223935;28;20444;-73
2022/01/03 10:55:52;;;;;;;9.15;2.65;;;20.60;50.40;;;;;;6207607;28;20022;-74
2022/01/03 10:58:53;;;;;;;10.48;1.90;;;20.60;50.40;;;;;;6224755;28;20383;-73
2022/01/03 11:02:00;;;;;;;8.43;2.40;;;20.60;50.60;;;;;;6224308;28;20454;-74
2022/01/03 11:05:09;;;;;;;9.75;2.60;;;20.60;50.80;;;;;;6224539;28;20018;-73
2022/01/03 11:11:12;;;;;;;5.72;1.92;;;20.60;50.90;;;;;;6204632;28;20026;-73
2022/01/03 11:14:33;;;;;;;7.25;2.55;;;20.60;50.90;;;;;;6207414;28;20052;-74
2022/01/03 11:17:34;;;;;;;6.93;2.10;;;20.60;50.90;;;;;;6223438;28;20026;-73
2022/01/03 11:20:35;;;;;;;6.30;2.25;;;20.60;50.90;;;;;;6224329;28;20442;-74
2022/01/03 11:23:36;;;;;;;6.80;1.98;;;20.60;50.90;;;;;;6221280;28;20121;-73
2022/01/03 11:26:46;;;;;;;5.85;1.98;;;20.60;50.90;;;;;;6223702;28;20022;-73
2022/01/03 11:29:47;;;;;;;8.88;2.30;;;20.60;50.90;;;;;;6221254;28;20433;-73
2022/01/03 11:32:50;;;;;;;7.00;2.10;;;20.60;50.90;;;;;;6214592;28;20034;-73
2022/01/03 11:35:51;;;;;;;4.80;1.77;;;20.60;50.80;;;;;;6205755;28;20499;-73
2022/01/03 11:38:54;;;;;;;5.88;2.10;;;20.60;50.80;;;;;;6224009;28;20033;-73
2022/01/03 11:41:55;;;;;;;6.25;2.05;;;20.60;50.90;;;;;;6205222;28;20718;-73
2022/01/03 11:44:56;;;;;;;5.05;2.00;;;20.60;50.90;;;;;;6205078;28;20036;-73
2022/01/03 11:47:57;;;;;;;4.88;1.67;;;20.60;50.90;;;;;;6213034;28;20109;-73
2022/01/03 11:51:02;;;;;;;5.30;1.85;;;20.60;50.90;;;;;;6207589;28;20018;-73
2022/01/03 11:54:05;;;;;;;4.55;1.60;;;20.60;50.90;;;;;;6222324;28;20084;-73
2022/01/03 11:57:08;;;;;;;5.10;1.90;;;20.60;50.90;;;;;;6223330;28;20123;-73
2022/01/03 12:03:40;;;;;;;4.05;1.65;;;20.60;50.90;;;;;;6222598;28;20042;-74
2022/01/03 12:06:43;;;;;;;4.53;1.77;;;20.60;50.90;;;;;;6210133;28;20049;-74
2022/01/03 12:09:54;;;;;;;7.82;2.13;;;20.60;50.90;;;;;;6212076;28;20061;-72
2022/01/03 12:12:59;;;;;;;6.53;2.20;;;20.60;50.90;;;;;;6222159;28;20034;-73
2022/01/03 12:16:04;;;;;;;16.38;2.40;;;20.60;50.90;;;;;;6210337;28;20100;-73
2022/01/03 12:19:08;;;;;;;11.23;2.10;;;20.70;51.10;;;;;;6209136;28;20029;-73
2022/01/03 12:22:27;;;;;;;12.00;1.80;;;20.70;51.00;;;;;;6205923;28;20022;-73
2022/01/03 12:25:31;;;;;;;8.38;1.73;;;20.70;50.90;;;;;;6202573;28;20385;-73
2022/01/03 12:29:07;;;;;;;18.02;2.63;;;20.70;50.90;;;;;;6197640;28;20072;-73
2022/01/03 12:32:08;;;;;;;7.82;2.35;;;20.60;50.80;;;;;;6178872;28;20398;-73
2022/01/03 12:35:23;;;;;;;18.40;2.15;;;20.60;50.90;;;;;;6191828;28;20072;-73
2022/01/03 12:38:28;;;;;;;5.68;2.05;;;20.60;50.90;;;;;;6199448;28;20462;-73
2022/01/03 12:41:48;;;;;;;10.23;2.33;;;20.70;51.00;;;;;;6194659;28;20026;-73
2022/01/03 12:44:50;;;;;;;4.55;1.58;;;20.60;50.90;;;;;;6195054;28;20231;-73
2022/01/03 12:47:51;;;;;;;14.70;2.22;;;20.60;50.90;;;;;;6198147;28;20034;-73
2022/01/03 12:50:52;;;;;;;60.78;4.38;;;20.70;51.10;;;;;;6177811;28;20029;-73
2022/01/03 12:53:53;;;;;;;39.22;3.47;;;20.70;51.10;;;;;;6194655;28;20030;-74
2022/01/03 12:57:12;;;;;;;35.05;3.22;;;20.60;51.00;;;;;;6186216;28;20038;-72
2022/01/03 13:00:42;;;;;;;22.23;2.60;;;20.70;51.00;;;;;;6194898;28;20037;-72
2022/01/03 13:03:52;;;;;;;14.48;2.78;;;20.70;50.90;;;;;;6194464;28;20054;-72
2022/01/03 13:07:00;;;;;;;6.88;1.67;;;20.70;51.00;;;;;;6193933;28;20409;-72
2022/01/03 13:10:01;;;;;;;9.80;1.98;;;20.70;51.00;;;;;;6194358;28;20384;-72
2022/01/03 13:13:02;;;;;;;18.50;2.50;;;20.70;51.00;;;;;;6195062;28;20027;-72
2022/01/03 13:16:24;;;;;;;6.97;1.98;;;20.70;51.10;;;;;;6194689;28;20037;-72
2022/01/03 13:19:30;;;;;;;8.95;1.70;;;20.70;51.10;;;;;;6194787;28;20038;-72
2022/01/03 13:22:32;;;;;;;5.30;2.00;;;20.60;51.00;;;;;;6191912;28;20389;-72
2022/01/03 13:25:33;;;;;;;6.97;1.90;;;20.70;51.10;;;;;;6194482;28;20026;-72
2022/01/03 13:28:44;;;;;;;7.80;2.00;;;20.60;51.00;;;;;;6194918;28;20098;-71
2022/01/03 13:31:45;;;;;;;6.07;1.95;;;20.60;51.00;;;;;;6191406;28;20033;-71
2022/01/03 13:34:47;;;;;;;5.68;1.30;;;20.70;51.10;;;;;;6214104;28;20469;-72
2022/01/03 13:37:49;;;;;;;6.28;1.60;;;20.70;51.10;;;;;;6191609;28;20125;-72
2022/01/03 13:40:49;;;;;;;4.25;1.35;;;20.70;51.10;;;;;;6191510;28;20065;-72
2022/01/03 13:43:56;;;;;;;6.80;1.95;;;20.70;51.10;;;;;;6192935;28;20042;-73
2022/01/03 13:50:26;;;;;;;5.45;1.73;;;20.70;51.00;;;;;;6193794;28;20026;-73
2022/01/03 13:53:27;;;;;;;9.32;2.28;;;20.70;50.90;;;;;;6189451;28;20018;-73
2022/01/03 13:56:40;;;;;;;7.03;1.95;;;20.70;51.40;;;;;;6191931;28;20500;-73
2022/01/03 13:59:42;;;;;;;5.38;1.73;;;20.80;50.80;;;;;;6172373;28;20033;-73
2022/01/03 14:02:43;;;;;;;7.78;1.42;;;20.70;50.80;;;;;;6193209;28;20149;-72
2022/01/03 14:05:44;;;;;;;6.93;1.70;;;20.70;50.80;;;;;;6190154;28;20444;-72
2022/01/03 14:08:49;;;;;;;4.28;1.70;;;20.70;50.90;;;;;;6193262;28;20037;-72
2022/01/03 14:11:50;;;;;;;8.73;1.65;;;20.70;50.90;;;;;;6193752;28;20058;-72
2022/01/03 14:14:54;;;;;;;4.63;1.30;;;20.70;50.90;;;;;;6196687;28;20445;-72
2022/01/03 14:17:55;;;;;;;3.43;1.73;;;20.70;50.90;;;;;;6192478;28;20035;-73
2022/01/03 14:21:26;;;;;;;5.82;1.73;;;20.70;50.90;;;;;;6193037;28;20033;-72
2022/01/03 14:24:28;;;;;;;3.90;1.75;;;20.70;50.70;;;;;;6176753;28;20494;-73
2022/01/03 14:27:31;;;;;;;6.07;1.63;;;20.60;50.50;;;;;;6193065;28;20532;-73
2022/01/03 14:30:36;;;;;;;4.32;1.40;;;20.60;50.40;;;;;;6193259;28;20556;-73
2022/01/03 14:33:39;;;;;;;5.30;2.00;;;20.60;50.10;;;;;;6192675;28;20301;-73
2022/01/03 14:36:41;;;;;;;5.68;2.05;;;20.60;50.00;;;;;;6192077;28;20436;-72
2022/01/03 14:39:49;;;;;;;8.85;2.17;;;20.60;49.80;;;;;;6202811;28;20030;-72
2022/01/03 14:42:52;;;;;;;6.80;1.67;;;20.60;49.50;;;;;;6188219;28;20030;-73
2022/01/03 14:46:13;;;;;;;7.80;2.42;;;20.60;49.00;;;;;;6208019;28;20418;-73
2022/01/03 14:49:19;;;;;;;13.52;2.55;;;20.60;48.30;;;;;;6192428;28;20061;-72
2022/01/03 14:52:40;;;;;;;8.15;2.20;;;20.50;48.20;;;;;;6193267;28;20030;-72
2022/01/03 14:55:44;;;;;;;6.93;2.42;;;20.60;48.70;;;;;;6197390;28;20573;-73
2022/01/03 14:58:45;;;;;;;6.63;1.83;;;20.60;48.50;;;;;;6194757;28;20038;-73
2022/01/03 15:01:48;;;;;;;11.77;1.77;;;20.60;49.10;;;;;;6207576;28;20088;-73
2022/01/03 15:04:50;;;;;;;10.07;2.03;;;20.60;49.10;;;;;;6205988;28;21130;-72
2022/01/03 15:07:53;;;;;;;8.77;1.92;;;20.60;49.20;;;;;;6211140;28;20034;-73
2022/01/03 15:10:53;;;;;;;6.22;1.98;;;20.60;49.20;;;;;;6204374;28;20028;-73
2022/01/03 15:13:54;;;;;;;6.68;2.05;;;20.60;49.20;;;;;;6219301;28;20324;-73
2022/01/03 15:16:54;;;;;;;6.57;1.90;;;20.60;49.30;;;;;;6212122;28;20096;-72
2022/01/03 15:19:55;;;;;;;6.43;1.65;;;20.60;49.40;;;;;;6194587;28;20034;-73
2022/01/03 15:22:56;;;;;;;4.63;1.45;;;20.60;49.40;;;;;;6204694;28;20109;-73
2022/01/03 15:25:57;;;;;;;5.45;2.00;;;20.60;49.40;;;;;;6210778;28;20030;-72
2022/01/03 15:28:57;;;;;;;8.10;2.03;;;20.60;49.50;;;;;;6211914;28;20566;-72
2022/01/03 15:31:58;;;;;;;6.82;2.10;;;20.60;49.50;;;;;;6220636;28;20033;-72
2022/01/03 15:34:58;;;;;;;4.68;2.08;;;20.60;49.50;;;;;;6219295;28;20026;-73
2022/01/03 15:37:59;;;;;;;6.63;1.73;;;20.60;49.50;;;;;;6217015;28;20036;-72
2022/01/03 15:40:59;;;;;;;4.43;1.50;;;20.60;49.60;;;;;;6215021;28;20053;-72
2022/01/03 15:44:00;;;;;;;4.15;1.50;;;20.60;49.60;;;;;;6194134;28;20034;-72
2022/01/03 15:47:01;;;;;;;3.22;1.42;;;20.60;49.70;;;;;;6210134;28;20097;-74
2022/01/03 15:50:03;;;;;;;3.38;1.48;;;20.60;49.70;;;;;;6211533;28;20036;-73
2022/01/03 15:53:04;;;;;;;3.40;1.40;;;20.60;49.70;;;;;;6218529;28;20026;-73
2022/01/03 15:56:06;;;;;;;7.60;1.60;;;20.60;49.80;;;;;;6205245;28;20030;-72
2022/01/03 15:59:09;;;;;;;3.70;1.52;;;20.60;49.90;;;;;;6210868;28;20448;-72
2022/01/03 16:02:10;;;;;;;3.78;1.52;;;20.60;49.80;;;;;;6193984;28;20133;-72
2022/01/03 16:05:10;;;;;;;2.40;1.27;;;20.60;49.90;;;;;;6207489;28;20101;-72
2022/01/03 16:08:11;;;;;;;8.30;1.30;;;20.60;49.90;;;;;;6209795;28;20033;-73
2022/01/03 16:11:11;;;;;;;7.95;1.42;;;20.60;49.90;;;;;;6196237;28;20019;-73